createdAt,value
2022-10-09T00:00:34.355Z,91.80
2022-10-09T00:01:34.419Z,92.11
2022-10-09T00:02:34.539Z,91.80
2022-10-09T00:03:40.850Z,92.00
2022-10-09T00:04:35.375Z,92.21
2022-10-09T00:05:35.444Z,92.11
2022-10-09T00:06:35.610Z,91.90
2022-10-09T00:07:34.177Z,91.90
2022-10-09T00:08:41.874Z,91.80
2022-10-09T00:09:34.221Z,92.21
2022-10-09T00:10:35.593Z,92.21
2022-10-09T00:11:34.502Z,92.21
2022-10-09T00:12:34.535Z,92.21
2022-10-09T00:13:41.518Z,92.21
2022-10-09T00:14:34.397Z,92.21
2022-10-09T00:15:34.038Z,92.21
2022-10-09T00:16:35.108Z,92.11
2022-10-09T00:17:35.012Z,91.80
2022-10-09T00:18:40.318Z,91.90
2022-10-09T00:19:34.403Z,92.00
2022-10-09T00:20:34.521Z,92.51
2022-10-09T00:21:38.119Z,92.11
2022-10-09T00:22:34.595Z,91.90
2022-10-09T00:23:40.737Z,91.60
2022-10-09T00:24:34.017Z,92.51
2022-10-09T00:25:35.132Z,92.31
2022-10-09T00:26:34.185Z,91.60
2022-10-09T00:27:33.973Z,92.31
2022-10-09T00:28:38.306Z,92.00
2022-10-09T00:29:40.406Z,92.31
2022-10-09T00:30:33.972Z,92.21
2022-10-09T00:31:33.886Z,92.31
2022-10-09T00:32:35.007Z,92.31
2022-10-09T00:33:35.069Z,92.21
2022-10-09T00:34:40.502Z,92.00
2022-10-09T00:35:33.785Z,92.51
2022-10-09T00:36:33.890Z,92.31
2022-10-09T00:37:34.817Z,91.90
2022-10-09T00:38:34.248Z,92.51
2022-10-09T00:39:40.479Z,92.21
2022-10-09T00:40:36.791Z,92.31
2022-10-09T00:41:34.061Z,92.41
2022-10-09T00:42:33.664Z,92.21
2022-10-09T00:43:34.090Z,92.21
2022-10-09T00:44:33.718Z,92.72
2022-10-09T00:45:40.004Z,92.31
2022-10-09T00:46:33.874Z,92.41
2022-10-09T00:47:33.936Z,92.61
2022-10-09T00:48:34.688Z,92.51
2022-10-09T00:49:33.556Z,92.11
2022-10-09T00:50:40.359Z,92.41
2022-10-09T00:51:33.793Z,92.61
2022-10-09T00:52:33.833Z,92.00
2022-10-09T00:53:33.716Z,92.61
2022-10-09T00:54:34.642Z,92.41
2022-10-09T00:55:33.542Z,92.72
2022-10-09T00:56:41.087Z,92.51
2022-10-09T00:57:35.070Z,92.51
2022-10-09T00:58:33.812Z,92.51
2022-10-09T00:59:33.714Z,92.92
2022-10-09T01:00:34.136Z,92.72
2022-10-09T01:01:33.525Z,92.51
2022-10-09T01:02:45.444Z,93.03
2022-10-09T01:03:33.523Z,92.82
2022-10-09T01:04:35.980Z,92.61
2022-10-09T01:05:34.625Z,92.82
2022-10-09T01:06:34.011Z,93.03
2022-10-09T01:07:38.331Z,92.72
2022-10-09T01:08:40.900Z,93.03
2022-10-09T01:09:33.728Z,92.41
2022-10-09T01:10:33.333Z,92.51
2022-10-09T01:11:33.474Z,92.82
2022-10-09T01:12:33.797Z,92.51
2022-10-09T01:13:34.157Z,92.82
2022-10-09T01:14:40.999Z,92.61
2022-10-09T01:15:33.887Z,92.92
2022-10-09T01:16:33.577Z,92.72
2022-10-09T01:17:33.808Z,92.82
2022-10-09T01:18:34.155Z,93.03
2022-10-09T01:19:33.299Z,93.23
2022-10-09T01:20:39.651Z,92.61
2022-10-09T01:21:33.418Z,93.34
2022-10-09T01:22:33.434Z,92.92
2022-10-09T01:23:33.993Z,92.82
2022-10-09T01:24:33.327Z,92.82
2022-10-09T01:25:34.514Z,92.82
2022-10-09T01:26:39.468Z,93.03
2022-10-09T01:27:33.202Z,93.03
2022-10-09T01:28:33.498Z,92.82
2022-10-09T01:29:33.110Z,93.13
2022-10-09T01:30:33.103Z,92.82
2022-10-09T01:31:33.163Z,92.82
2022-10-09T01:32:40.417Z,92.92
2022-10-09T01:33:33.089Z,93.03
2022-10-09T01:34:33.966Z,92.82
2022-10-09T01:35:33.397Z,93.55
2022-10-09T01:36:34.222Z,93.23
2022-10-09T01:37:39.307Z,93.34
2022-10-09T01:38:33.859Z,93.03
2022-10-09T01:39:33.357Z,93.23
2022-10-09T01:40:35.654Z,93.23
2022-10-09T01:41:33.961Z,93.23
2022-10-09T01:42:33.295Z,93.34
2022-10-09T01:43:40.357Z,93.65
2022-10-09T01:44:33.627Z,93.03
2022-10-09T01:45:33.033Z,93.13
2022-10-09T01:46:32.978Z,93.44
2022-10-09T01:47:32.927Z,93.34
2022-10-09T01:48:33.136Z,93.86
2022-10-09T01:49:39.195Z,93.44
2022-10-09T01:50:33.339Z,93.03
2022-10-09T01:51:33.068Z,93.03
2022-10-09T01:52:32.799Z,93.23
2022-10-09T01:53:36.938Z,93.86
2022-10-09T01:54:39.403Z,93.65
2022-10-09T01:55:32.798Z,93.23
2022-10-09T01:56:34.676Z,93.23
2022-10-09T01:57:33.040Z,93.65
2022-10-09T01:58:32.896Z,93.23
2022-10-09T01:59:33.513Z,93.23
2022-10-09T02:00:39.398Z,93.34
2022-10-09T02:01:34.355Z,93.23
2022-10-09T02:02:32.762Z,93.34
2022-10-09T02:03:32.749Z,93.44
2022-10-09T02:04:34.043Z,93.23
2022-10-09T02:05:33.115Z,93.44
2022-10-09T02:06:38.961Z,93.34
2022-10-09T02:07:33.124Z,93.55
2022-10-09T02:08:33.542Z,93.44
2022-10-09T02:09:32.665Z,94.07
2022-10-09T02:10:33.375Z,93.65
2022-10-09T02:11:40.263Z,93.55
2022-10-09T02:12:32.773Z,93.44
2022-10-09T02:13:32.975Z,93.65
2022-10-09T02:14:34.942Z,93.65
2022-10-09T02:15:32.533Z,93.75
2022-10-09T02:17:03.956Z,166.01
2022-10-09T02:18:03.749Z,130.76
2022-10-09T02:19:02.659Z,114.96
2022-10-09T02:20:03.188Z,106.82
2022-10-09T02:21:02.961Z,101.64
2022-10-09T02:22:10.342Z,99.05
2022-10-09T02:23:07.974Z,96.65
2022-10-09T02:24:02.133Z,95.33
2022-10-09T02:25:02.493Z,94.47
2022-10-09T02:26:02.579Z,94.05
2022-10-09T02:27:09.612Z,93.89
2022-10-09T02:28:02.125Z,95.14
2022-10-09T02:29:02.808Z,95.14
2022-10-09T02:30:02.507Z,94.82
2022-10-09T02:31:03.459Z,94.39
2022-10-09T02:32:02.602Z,94.39
2022-10-09T02:33:08.657Z,94.28
2022-10-09T02:34:02.336Z,94.28
2022-10-09T02:35:02.112Z,94.71
2022-10-09T02:36:02.752Z,94.07
2022-10-09T02:37:03.044Z,93.86
2022-10-09T02:38:01.958Z,93.96
2022-10-09T02:39:08.469Z,93.86
2022-10-09T02:40:06.984Z,94.07
2022-10-09T02:41:04.116Z,94.18
2022-10-09T02:42:02.040Z,93.86
2022-10-09T02:43:01.872Z,93.75
2022-10-09T02:44:01.896Z,93.75
2022-10-09T02:45:08.181Z,93.86
2022-10-09T02:46:03.236Z,94.50
2022-10-09T02:47:02.034Z,93.65
2022-10-09T02:48:02.345Z,93.34
2022-10-09T02:49:02.475Z,93.96
2022-10-09T02:50:02.375Z,93.75
2022-10-09T02:51:09.384Z,94.28
2022-10-09T02:52:01.980Z,94.07
2022-10-09T02:53:01.875Z,94.07
2022-10-09T02:54:01.832Z,93.96
2022-10-09T02:55:02.139Z,93.96
2022-10-09T02:56:03.172Z,93.86
2022-10-09T02:57:08.093Z,93.86
2022-10-09T02:58:03.935Z,93.75
2022-10-09T02:59:01.730Z,93.55
2022-10-09T03:00:02.672Z,93.86
2022-10-09T03:01:01.604Z,93.65
2022-10-09T03:02:08.037Z,93.75
2022-10-09T03:03:02.771Z,93.75
2022-10-09T03:04:02.183Z,93.65
2022-10-09T03:05:01.647Z,94.07
2022-10-09T03:06:01.692Z,93.86
2022-10-09T03:07:01.975Z,93.86
2022-10-09T03:08:09.199Z,94.07
2022-10-09T03:09:02.473Z,93.96
2022-10-09T03:10:02.081Z,94.28
2022-10-09T03:11:01.549Z,93.86
2022-10-09T03:12:01.496Z,93.86
2022-10-09T03:13:01.631Z,93.86
2022-10-09T03:14:08.379Z,93.96
2022-10-09T03:15:01.893Z,94.07
2022-10-09T03:16:02.429Z,94.07
2022-10-09T03:17:01.836Z,93.86
2022-10-09T03:18:02.487Z,94.18
2022-10-09T03:19:01.444Z,94.28
2022-10-09T03:20:08.360Z,94.28
2022-10-09T03:21:01.422Z,94.28
2022-10-09T03:22:01.458Z,94.50
2022-10-09T03:23:01.602Z,93.96
2022-10-09T03:24:01.353Z,94.07
2022-10-09T03:25:01.728Z,94.07
2022-10-09T03:26:08.261Z,93.96
2022-10-09T03:27:01.370Z,94.50
2022-10-09T03:28:01.453Z,94.28
2022-10-09T03:29:01.401Z,94.50
2022-10-09T03:30:01.342Z,94.28
2022-10-09T03:31:01.649Z,94.50
2022-10-09T03:32:08.573Z,94.39
2022-10-09T03:33:01.673Z,94.28
2022-10-09T03:34:02.325Z,94.28
2022-10-09T03:35:01.344Z,94.18
2022-10-09T03:36:01.728Z,94.50
2022-10-09T03:37:01.200Z,94.07
2022-10-09T03:38:07.800Z,94.07
2022-10-09T03:39:01.149Z,93.96
2022-10-09T03:40:02.403Z,94.07
2022-10-09T03:41:01.098Z,94.50
2022-10-09T03:42:02.373Z,94.60
2022-10-09T03:43:01.155Z,94.28
2022-10-09T03:44:08.170Z,94.28
2022-10-09T03:45:01.180Z,94.82
2022-10-09T03:46:01.627Z,94.18
2022-10-09T03:47:01.892Z,94.60
2022-10-09T03:48:01.720Z,94.71
2022-10-09T03:49:01.610Z,94.07
2022-10-09T03:50:07.365Z,94.18
2022-10-09T03:51:01.106Z,94.50
2022-10-09T03:52:01.607Z,94.18
2022-10-09T03:53:01.554Z,94.50
2022-10-09T03:54:01.887Z,94.71
2022-10-09T03:55:01.336Z,94.39
2022-10-09T03:56:08.009Z,94.18
2022-10-09T03:57:00.913Z,94.50
2022-10-09T03:58:02.188Z,94.39
2022-10-09T03:59:01.277Z,94.18
2022-10-09T04:00:01.228Z,95.03
2022-10-09T04:01:07.833Z,94.28
2022-10-09T04:02:03.320Z,94.39
2022-10-09T04:03:01.892Z,94.92
2022-10-09T04:04:01.258Z,94.92
2022-10-09T04:05:00.830Z,94.82
2022-10-09T04:06:01.024Z,94.71
2022-10-09T04:07:11.665Z,94.60
2022-10-09T04:08:00.802Z,94.28
2022-10-09T04:09:01.718Z,94.71
2022-10-09T04:10:00.854Z,94.92
2022-10-09T04:11:01.111Z,94.60
2022-10-09T04:12:00.796Z,94.92
2022-10-09T04:13:07.088Z,94.92
2022-10-09T04:14:00.988Z,94.71
2022-10-09T04:15:00.739Z,94.82
2022-10-09T04:16:01.391Z,94.60
2022-10-09T04:17:00.915Z,94.82
2022-10-09T04:18:07.930Z,94.60
2022-10-09T04:19:01.069Z,94.71
2022-10-09T04:20:00.714Z,94.60
2022-10-09T04:21:01.406Z,95.03
2022-10-09T04:22:01.670Z,94.92
2022-10-09T04:23:00.642Z,94.82
2022-10-09T04:24:07.487Z,94.50
2022-10-09T04:25:00.883Z,94.50
2022-10-09T04:26:00.584Z,94.92
2022-10-09T04:27:00.946Z,94.92
2022-10-09T04:28:00.671Z,94.92
2022-10-09T04:29:07.260Z,95.03
2022-10-09T04:30:00.521Z,95.25
2022-10-09T04:31:00.713Z,94.82
2022-10-09T04:32:00.944Z,95.14
2022-10-09T04:33:00.778Z,95.25
2022-10-09T04:34:06.779Z,95.14
2022-10-09T04:35:02.044Z,95.46
2022-10-09T04:36:01.024Z,95.68
2022-10-09T04:37:00.437Z,95.36
2022-10-09T04:38:00.546Z,95.57
2022-10-09T04:39:01.760Z,94.92
2022-10-09T04:40:06.991Z,95.46
2022-10-09T04:41:00.386Z,95.25
2022-10-09T04:42:01.012Z,95.36
2022-10-09T04:43:01.088Z,93.73
2022-10-09T04:44:01.701Z,94.92
2022-10-09T04:45:00.375Z,95.46
2022-10-09T04:46:06.659Z,95.25
2022-10-09T04:47:00.575Z,95.57
2022-10-09T04:48:00.398Z,95.14
2022-10-09T04:49:00.525Z,95.57
2022-10-09T04:50:00.605Z,95.36
2022-10-09T04:51:06.561Z,93.84
2022-10-09T04:52:00.212Z,95.25
2022-10-09T04:53:00.180Z,95.25
2022-10-09T04:54:00.855Z,95.57
2022-10-09T04:55:00.548Z,95.46
2022-10-09T04:56:00.834Z,94.05
2022-10-09T04:57:07.279Z,95.46
2022-10-09T04:58:00.951Z,93.52
2022-10-09T04:59:00.124Z,93.57
2022-10-09T05:00:02.880Z,95.68
2022-10-09T05:01:00.660Z,93.73
2022-10-09T05:02:06.500Z,95.46
2022-10-09T05:03:00.519Z,93.89
2022-10-09T05:04:00.128Z,95.57
2022-10-09T05:05:00.103Z,95.03
2022-10-09T05:06:00.122Z,95.36
2022-10-09T05:07:06.739Z,95.57
2022-10-09T05:08:00.672Z,93.94
2022-10-09T05:09:00.367Z,95.57
2022-10-09T05:10:00.185Z,93.63
2022-10-09T05:11:00.054Z,95.57
2022-10-09T05:12:06.334Z,95.68
2022-10-09T05:12:59.972Z,93.94
2022-10-09T05:14:00.064Z,95.68
2022-10-09T05:15:00.456Z,94.15
2022-10-09T05:16:21.960Z,95.57
2022-10-09T05:17:13.767Z,95.57
2022-10-09T05:18:07.828Z,95.46
2022-10-09T05:19:00.177Z,95.36
2022-10-09T05:20:00.548Z,94.37
2022-10-09T05:21:00.293Z,93.89
2022-10-09T05:22:00.041Z,93.89
2022-10-09T05:22:59.869Z,94.10
2022-10-09T05:24:10.130Z,93.94
2022-10-09T05:25:01.089Z,95.68
2022-10-09T05:26:00.260Z,93.73
2022-10-09T05:26:59.768Z,93.94
2022-10-09T05:28:00.426Z,95.57
2022-10-09T05:29:06.029Z,95.57
2022-10-09T05:30:00.318Z,93.68
2022-10-09T05:31:00.088Z,93.63
2022-10-09T05:31:59.783Z,93.94
2022-10-09T05:33:00.421Z,93.78
2022-10-09T05:34:05.977Z,93.63
2022-10-09T05:34:59.699Z,93.73
2022-10-09T05:36:00.245Z,95.68
2022-10-09T05:37:01.873Z,95.57
2022-10-09T05:37:59.639Z,94.00
2022-10-09T05:38:59.628Z,93.63
2022-10-09T05:40:05.898Z,94.00
2022-10-09T05:41:00.082Z,95.57
2022-10-09T05:41:59.937Z,93.42
2022-10-09T05:42:59.882Z,94.26
2022-10-09T05:43:59.523Z,95.46
2022-10-09T05:45:06.164Z,93.78
2022-10-09T05:46:00.329Z,93.94
2022-10-09T05:46:59.986Z,95.68
2022-10-09T05:47:59.586Z,95.68
2022-10-09T05:49:00.341Z,93.63
2022-10-09T05:50:00.045Z,95.46
2022-10-09T05:51:06.570Z,94.05
2022-10-09T05:51:59.489Z,95.57
2022-10-09T05:53:00.222Z,94.00
2022-10-09T05:54:01.385Z,95.68
2022-10-09T05:55:00.304Z,93.89
2022-10-09T05:56:03.570Z,93.68
2022-10-09T05:57:05.788Z,95.57
2022-10-09T05:57:59.888Z,95.46
2022-10-09T05:58:59.955Z,95.57
2022-10-09T06:00:00.515Z,94.15
2022-10-09T06:00:59.719Z,93.57
2022-10-09T06:02:06.249Z,93.89
2022-10-09T06:02:59.295Z,95.68
2022-10-09T06:03:59.676Z,95.36
2022-10-09T06:04:59.539Z,95.68
2022-10-09T06:06:00.519Z,95.36
2022-10-09T06:07:05.632Z,93.73
2022-10-09T06:07:59.922Z,93.52
2022-10-09T06:09:01.089Z,95.68
2022-10-09T06:09:59.751Z,94.00
2022-10-09T06:10:59.259Z,95.14
2022-10-09T06:12:00.156Z,95.25
2022-10-09T06:13:05.565Z,95.68
2022-10-09T06:13:59.477Z,95.57
2022-10-09T06:14:59.887Z,95.57
2022-10-09T06:15:59.901Z,95.36
2022-10-09T06:17:00.038Z,95.36
2022-10-09T06:18:06.133Z,95.36
2022-10-09T06:18:59.848Z,95.03
2022-10-09T06:19:59.504Z,95.14
2022-10-09T06:20:59.281Z,95.25
2022-10-09T06:21:59.690Z,95.03
2022-10-09T06:23:05.434Z,94.60
2022-10-09T06:23:59.041Z,95.14
2022-10-09T06:24:59.573Z,94.92
2022-10-09T06:25:59.064Z,95.14
2022-10-09T06:27:00.101Z,95.14
2022-10-09T06:28:06.408Z,95.25
2022-10-09T06:28:59.271Z,94.92
2022-10-09T06:30:00.723Z,95.14
2022-10-09T06:30:59.620Z,94.92
2022-10-09T06:31:59.396Z,94.71
2022-10-09T06:32:59.025Z,94.71
2022-10-09T06:34:05.590Z,94.50
2022-10-09T06:35:00.160Z,94.92
2022-10-09T06:36:08.570Z,94.92
2022-10-09T06:37:00.420Z,94.39
2022-10-09T06:37:58.911Z,94.50
2022-10-09T06:38:58.860Z,94.50
2022-10-09T06:40:06.343Z,94.39
2022-10-09T06:40:59.013Z,94.60
2022-10-09T06:41:58.881Z,94.82
2022-10-09T06:42:59.288Z,94.60
2022-10-09T06:43:58.799Z,94.50
2022-10-09T06:45:07.761Z,94.07
2022-10-09T06:45:58.974Z,94.50
2022-10-09T06:46:58.789Z,94.07
2022-10-09T06:47:58.748Z,94.39
2022-10-09T06:48:59.833Z,94.28
2022-10-09T06:50:22.593Z,94.18
2022-10-09T06:50:58.760Z,94.07
2022-10-09T06:52:02.349Z,94.07
2022-10-09T06:52:58.726Z,94.18
2022-10-09T06:53:59.744Z,94.07
2022-10-09T06:55:00.608Z,93.96
2022-10-09T06:56:06.199Z,93.96
2022-10-09T06:57:19.700Z,93.86
2022-10-09T06:57:58.909Z,93.86
2022-10-09T06:58:58.991Z,93.65
2022-10-09T06:59:58.970Z,93.75
2022-10-09T07:01:00.786Z,93.75
2022-10-09T07:02:04.990Z,93.65
2022-10-09T07:02:58.573Z,93.34
2022-10-09T07:03:58.647Z,93.23
2022-10-09T07:04:59.008Z,93.34
2022-10-09T07:05:58.965Z,93.65
2022-10-09T07:06:58.505Z,93.65
2022-10-09T07:07:58.997Z,93.13
2022-10-09T07:08:58.531Z,93.55
2022-10-09T07:10:00.924Z,92.82
2022-10-09T07:10:58.704Z,93.13
2022-10-09T07:11:58.930Z,93.03
2022-10-09T07:13:06.977Z,92.82
2022-10-09T07:14:00.737Z,93.03
2022-10-09T07:14:58.749Z,93.03
2022-10-09T07:16:03.900Z,92.72
2022-10-09T07:17:02.200Z,92.92
2022-10-09T07:18:04.646Z,92.51
2022-10-09T07:18:58.677Z,92.61
2022-10-09T07:19:59.810Z,92.82
2022-10-09T07:20:59.667Z,92.31
2022-10-09T07:21:59.470Z,92.00
2022-10-09T07:23:04.554Z,92.11
2022-10-09T07:23:58.367Z,91.80
2022-10-09T07:24:58.962Z,92.00
2022-10-09T07:25:58.365Z,92.00
2022-10-09T07:26:58.733Z,92.00
2022-10-09T07:27:59.201Z,91.80
2022-10-09T07:29:04.620Z,91.70
2022-10-09T07:29:58.312Z,91.80
2022-10-09T07:30:58.549Z,91.80
2022-10-09T07:32:00.495Z,91.90
2022-10-09T07:32:58.325Z,91.50
2022-10-09T07:33:58.510Z,91.80
2022-10-09T07:35:04.648Z,91.60
2022-10-09T07:35:58.440Z,91.30
2022-10-09T07:36:58.549Z,91.30
2022-10-09T07:37:58.736Z,91.10
2022-10-09T07:38:59.441Z,91.10
2022-10-09T07:39:59.248Z,90.81
2022-10-09T07:41:04.844Z,91.00
2022-10-09T07:41:58.162Z,90.81
2022-10-09T07:42:59.277Z,90.71
2022-10-09T07:43:59.033Z,91.00
2022-10-09T07:45:03.431Z,90.61
2022-10-09T07:45:58.156Z,90.61
2022-10-09T07:47:04.709Z,90.71
2022-10-09T07:47:58.276Z,90.42
2022-10-09T07:48:58.354Z,90.42
2022-10-09T07:49:58.427Z,90.51
2022-10-09T07:50:57.989Z,90.22
2022-10-09T07:52:06.042Z,90.12
2022-10-09T07:52:58.270Z,90.03
2022-10-09T07:54:02.133Z,90.32
2022-10-09T07:54:58.283Z,90.22
2022-10-09T07:55:58.305Z,90.03
2022-10-09T07:56:58.438Z,89.74
2022-10-09T07:58:05.895Z,89.83
2022-10-09T07:59:04.140Z,89.64
2022-10-09T07:59:58.161Z,89.64
2022-10-09T08:00:58.880Z,89.64
2022-10-09T08:01:57.994Z,89.45
2022-10-09T08:03:04.131Z,89.26
2022-10-09T08:04:04.162Z,89.16
2022-10-09T08:04:58.620Z,89.54
2022-10-09T08:05:57.689Z,89.07
2022-10-09T08:06:57.991Z,88.97
2022-10-09T08:07:59.388Z,88.88
2022-10-09T08:09:04.156Z,88.79
2022-10-09T08:09:58.337Z,88.69
2022-10-09T08:10:58.832Z,88.69
2022-10-09T08:11:58.109Z,88.69
2022-10-09T08:12:57.936Z,88.69
2022-10-09T08:13:57.709Z,88.41
2022-10-09T08:15:04.385Z,88.22
2022-10-09T08:15:57.961Z,88.13
2022-10-09T08:16:57.603Z,88.04
2022-10-09T08:17:57.625Z,87.95
2022-10-09T08:18:57.831Z,87.95
2022-10-09T08:20:05.132Z,87.85
2022-10-09T08:20:57.843Z,87.76
2022-10-09T08:22:03.290Z,87.76
2022-10-09T08:22:58.517Z,87.95
2022-10-09T08:23:57.575Z,87.58
2022-10-09T08:25:01.885Z,87.49
2022-10-09T08:26:04.942Z,87.49
2022-10-09T08:26:57.548Z,87.31
2022-10-09T08:27:57.845Z,87.21
2022-10-09T08:28:58.708Z,87.21
2022-10-09T08:29:57.420Z,87.03
2022-10-09T08:31:03.923Z,87.03
2022-10-09T08:31:57.622Z,87.03
2022-10-09T08:32:58.445Z,86.67
2022-10-09T08:33:57.386Z,86.85
2022-10-09T08:34:57.539Z,86.40
2022-10-09T08:36:03.718Z,86.49
2022-10-09T08:36:57.331Z,86.40
2022-10-09T08:37:58.673Z,86.49
2022-10-09T08:38:57.313Z,86.67
2022-10-09T08:39:57.523Z,86.23
2022-10-09T08:41:03.595Z,86.05
2022-10-09T08:41:57.935Z,85.96
2022-10-09T08:42:57.350Z,86.40
2022-10-09T08:43:57.394Z,85.78
2022-10-09T08:44:57.288Z,85.70
2022-10-09T08:45:57.546Z,85.70
2022-10-09T08:47:03.557Z,85.35
2022-10-09T08:47:57.327Z,85.09
2022-10-09T08:48:57.691Z,86.32
2022-10-09T08:49:57.444Z,84.92
2022-10-09T08:50:57.478Z,85.17
2022-10-09T08:51:57.316Z,84.66
2022-10-09T08:53:03.501Z,85.35
2022-10-09T08:53:57.141Z,84.57
2022-10-09T08:54:57.386Z,84.32
2022-10-09T08:55:57.548Z,84.23
2022-10-09T08:56:57.619Z,84.74
2022-10-09T08:57:57.630Z,84.40
2022-10-09T08:59:05.253Z,83.89
2022-10-09T08:59:57.181Z,83.98
2022-10-09T09:00:58.050Z,83.64
2022-10-09T09:01:57.517Z,83.56
2022-10-09T09:02:57.074Z,83.64
2022-10-09T09:03:57.723Z,83.14
2022-10-09T09:05:03.292Z,83.73
2022-10-09T09:05:57.053Z,83.56
2022-10-09T09:06:58.104Z,83.06
2022-10-09T09:07:58.613Z,82.90
2022-10-09T09:08:58.256Z,82.90
2022-10-09T09:10:03.442Z,82.90
2022-10-09T09:10:56.897Z,82.90
2022-10-09T09:11:57.506Z,82.25
2022-10-09T09:12:56.862Z,82.17
2022-10-09T09:13:57.559Z,82.90
2022-10-09T09:15:03.407Z,82.33
2022-10-09T09:15:58.048Z,82.57
2022-10-09T09:16:56.900Z,82.08
2022-10-09T09:17:57.073Z,82.08
2022-10-09T09:18:57.214Z,81.76
2022-10-09T09:19:57.057Z,81.92
2022-10-09T09:21:04.202Z,81.76
2022-10-09T09:21:56.876Z,81.21
2022-10-09T09:22:57.932Z,81.45
2022-10-09T09:23:56.975Z,80.97
2022-10-09T09:24:56.718Z,80.74
2022-10-09T09:25:57.338Z,80.97
2022-10-09T09:27:04.648Z,80.97
2022-10-09T09:27:57.297Z,80.66
2022-10-09T09:28:57.038Z,80.58
2022-10-09T09:29:56.690Z,80.51
2022-10-09T09:30:57.038Z,80.35
2022-10-09T09:32:03.254Z,79.89
2022-10-09T09:32:56.884Z,80.43
2022-10-09T09:33:56.740Z,80.04
2022-10-09T09:34:56.691Z,79.89
2022-10-09T09:35:56.823Z,80.20
2022-10-09T09:36:56.616Z,79.97
2022-10-09T09:38:04.110Z,79.89
2022-10-09T09:40:58.816Z,79.21
2022-10-09T09:41:56.477Z,79.14
2022-10-09T09:43:05.023Z,78.99
2022-10-09T09:43:56.488Z,78.76
2022-10-09T09:44:56.493Z,78.84
2022-10-09T09:45:57.066Z,79.06
2022-10-09T09:46:56.491Z,78.99
2022-10-09T09:48:02.773Z,78.69
2022-10-09T09:48:56.829Z,78.62
2022-10-09T09:49:56.532Z,78.54
2022-10-09T09:51:16.294Z,78.18
2022-10-09T09:51:57.414Z,78.25
2022-10-09T09:53:03.107Z,77.96
2022-10-09T09:53:57.737Z,77.96
2022-10-09T09:54:56.713Z,77.74
2022-10-09T09:55:57.407Z,77.67
2022-10-09T09:57:15.959Z,77.74
2022-10-09T09:57:58.069Z,77.53
2022-10-09T09:59:03.379Z,77.24
2022-10-09T09:59:58.116Z,77.38
2022-10-09T10:00:56.956Z,77.53
2022-10-09T10:01:57.815Z,77.17
2022-10-09T10:02:56.842Z,77.03
2022-10-09T10:04:03.401Z,76.67
2022-10-09T10:05:03.202Z,76.74
2022-10-09T10:05:58.478Z,76.89
2022-10-09T10:06:56.723Z,76.46
2022-10-09T10:07:56.565Z,76.25
2022-10-09T10:08:57.189Z,75.77
2022-10-09T10:10:02.764Z,75.91
2022-10-09T10:10:56.948Z,75.57
2022-10-09T10:11:56.188Z,75.70
2022-10-09T10:12:56.166Z,75.57
2022-10-09T10:13:56.352Z,75.29
2022-10-09T10:15:07.126Z,74.96
2022-10-09T10:15:56.653Z,75.03
2022-10-09T10:16:56.121Z,75.03
2022-10-09T10:17:56.638Z,75.16
2022-10-09T10:18:56.381Z,74.69
2022-10-09T10:19:56.105Z,74.89
2022-10-09T10:21:02.288Z,74.49
2022-10-09T10:21:56.318Z,74.16
2022-10-09T10:22:55.951Z,74.36
2022-10-09T10:23:56.113Z,74.29
2022-10-09T10:24:56.306Z,73.90
2022-10-09T10:26:02.314Z,74.10
2022-10-09T10:26:56.000Z,73.83
2022-10-09T10:27:56.886Z,73.57
2022-10-09T10:28:55.980Z,73.51
2022-10-09T10:29:56.080Z,73.25
2022-10-09T10:30:56.002Z,73.32
2022-10-09T10:32:02.350Z,73.38
2022-10-09T10:32:56.809Z,72.87
2022-10-09T10:33:56.090Z,73.00
2022-10-09T10:34:56.222Z,72.68
2022-10-09T10:35:56.165Z,72.43
2022-10-09T10:37:03.536Z,72.37
2022-10-09T10:37:56.385Z,72.62
2022-10-09T10:38:55.954Z,71.93
2022-10-09T10:39:56.348Z,72.24
2022-10-09T10:40:55.975Z,71.93
2022-10-09T10:42:02.395Z,72.06
2022-10-09T10:42:58.645Z,72.31
2022-10-09T10:43:55.930Z,72.06
2022-10-09T10:44:56.116Z,71.93
2022-10-09T10:45:56.700Z,71.75
2022-10-09T10:47:02.718Z,71.50
2022-10-09T10:47:56.428Z,71.56
2022-10-09T10:48:55.787Z,71.50
2022-10-09T10:49:57.841Z,71.38
2022-10-09T10:50:56.023Z,71.50
2022-10-09T10:52:08.504Z,71.44
2022-10-09T10:52:56.519Z,71.14
2022-10-09T10:53:55.878Z,71.20
2022-10-09T10:54:55.893Z,70.90
2022-10-09T10:55:55.640Z,70.78
2022-10-09T10:56:55.693Z,70.84
2022-10-09T10:58:03.256Z,70.48
2022-10-09T10:58:56.791Z,70.60
2022-10-09T10:59:56.788Z,70.60
2022-10-09T11:00:55.714Z,70.48
2022-10-09T11:01:55.610Z,70.24
2022-10-09T11:02:56.379Z,70.18
2022-10-09T11:04:02.491Z,70.12
2022-10-09T11:04:56.418Z,69.83
2022-10-09T11:05:55.438Z,70.01
2022-10-09T11:06:55.603Z,69.89
2022-10-09T11:08:00.037Z,69.66
2022-10-09T11:08:56.094Z,69.78
2022-10-09T11:10:01.730Z,69.49
2022-10-09T11:10:56.394Z,69.49
2022-10-09T11:11:56.020Z,69.37
2022-10-09T11:12:55.744Z,69.20
2022-10-09T11:13:56.581Z,69.20
2022-10-09T11:14:55.349Z,69.08
2022-10-09T11:16:02.501Z,69.08
2022-10-09T11:16:56.718Z,69.31
2022-10-09T11:18:01.577Z,68.97
2022-10-09T11:18:56.038Z,68.91
2022-10-09T11:19:56.580Z,68.91
2022-10-09T11:21:02.742Z,69.20
2022-10-09T11:21:55.266Z,68.57
2022-10-09T11:22:55.319Z,68.86
2022-10-09T11:23:55.737Z,68.91
2022-10-09T11:24:55.184Z,68.52
2022-10-09T11:26:01.542Z,67.47
2022-10-09T11:26:59.658Z,67.47
2022-10-09T11:27:57.011Z,68.07
2022-10-09T11:28:55.140Z,67.74
2022-10-09T11:29:55.323Z,67.47
2022-10-09T11:30:56.332Z,67.58
2022-10-09T11:32:01.910Z,66.99
2022-10-09T11:32:55.673Z,66.77
2022-10-09T11:33:55.637Z,67.42
2022-10-09T11:34:55.288Z,67.31
2022-10-09T11:35:55.144Z,67.04
2022-10-09T11:37:01.428Z,66.82
2022-10-09T11:37:55.113Z,66.93
2022-10-09T11:38:55.123Z,66.61
2022-10-09T11:39:54.995Z,66.56
2022-10-09T11:40:55.436Z,66.56
2022-10-09T11:42:01.691Z,66.09
2022-10-09T11:42:55.468Z,65.72
2022-10-09T11:43:57.408Z,66.03
2022-10-09T11:44:55.054Z,65.67
2022-10-09T11:45:55.512Z,65.31
2022-10-09T11:46:54.846Z,65.72
2022-10-09T11:48:02.697Z,65.42
2022-10-09T11:48:57.237Z,65.62
2022-10-09T11:49:54.898Z,65.83
2022-10-09T11:50:54.975Z,65.52
2022-10-09T11:51:54.880Z,65.62
2022-10-09T11:53:01.263Z,65.31
2022-10-09T11:53:54.942Z,65.62
2022-10-09T11:54:55.142Z,65.67
2022-10-09T11:55:55.655Z,66.40
2022-10-09T11:56:55.255Z,65.52
2022-10-09T11:57:54.755Z,66.19
2022-10-09T11:59:01.223Z,65.72
2022-10-09T11:59:54.693Z,65.16
2022-10-09T12:00:54.902Z,65.67
2022-10-09T12:01:54.890Z,65.93
2022-10-09T12:02:54.837Z,64.91
2022-10-09T12:04:02.089Z,65.98
2022-10-09T12:04:55.759Z,65.57
2022-10-09T12:05:55.325Z,65.52
2022-10-09T12:06:54.624Z,65.42
2022-10-09T12:07:54.718Z,65.47
2022-10-09T12:09:02.392Z,65.57
2022-10-09T12:09:54.693Z,65.21
2022-10-09T12:10:54.624Z,65.26
2022-10-09T12:11:54.735Z,65.36
2022-10-09T12:12:54.925Z,65.16
2022-10-09T12:14:00.992Z,65.31
2022-10-09T12:14:54.737Z,64.96
2022-10-09T12:15:54.491Z,65.21
2022-10-09T12:16:54.643Z,64.76
2022-10-09T12:17:55.204Z,64.76
2022-10-09T12:19:01.032Z,64.61
2022-10-09T12:19:58.697Z,64.46
2022-10-09T12:20:57.086Z,64.41
2022-10-09T12:21:54.540Z,64.11
2022-10-09T12:23:24.698Z,63.72
2022-10-09T12:23:56.236Z,63.67
2022-10-09T12:25:01.355Z,63.72
2022-10-09T12:25:54.977Z,63.48
2022-10-09T12:26:56.810Z,63.38
2022-10-09T12:27:54.460Z,63.15
2022-10-09T12:28:55.696Z,63.34
2022-10-09T12:30:00.883Z,63.15
2022-10-09T12:30:55.141Z,63.10
2022-10-09T12:31:54.348Z,62.96
2022-10-09T12:32:55.222Z,62.77
2022-10-09T12:33:54.698Z,62.86
2022-10-09T12:34:54.584Z,62.81
2022-10-09T12:36:00.853Z,62.30
2022-10-09T12:36:54.732Z,62.77
2022-10-09T12:37:54.930Z,62.16
2022-10-09T12:38:54.353Z,62.44
2022-10-09T12:39:54.374Z,62.39
2022-10-09T12:40:55.357Z,62.25
2022-10-09T12:42:00.602Z,61.98
2022-10-09T12:42:54.418Z,62.30
2022-10-09T12:43:54.470Z,61.89
2022-10-09T12:44:54.685Z,61.75
2022-10-09T12:46:01.292Z,61.75
2022-10-09T12:47:00.762Z,61.89
2022-10-09T12:47:54.308Z,61.52
2022-10-09T12:48:54.198Z,61.75
2022-10-09T12:49:54.363Z,61.34
2022-10-09T12:50:54.514Z,61.25
2022-10-09T12:52:01.287Z,61.12
2022-10-09T12:52:54.530Z,61.25
2022-10-09T12:53:55.080Z,61.12
2022-10-09T12:54:54.766Z,60.50